Ponder, Texas
Current Conditions -  °F | °C
As of 7:53 PM on Wednesday 22 Oct 2014 (Local Time) from KDTO Reporting Station
Clear Clear  
Wind Chill: 73°   Ceiling: Unl
Heat Index: 73°   Visibility: 10mi
Dew Point: 57°   Wind: 5mph
Humidity: 57%   Direction: 120°ESE
Pressure: 30.1"   Gusts: NA
Location:  33.18°N, 97.29°W
Report Text: KDTO 230053Z 12004KT 10SM CLR 23/14 A3010 RMK AO2 SLP186 T02280139
Loading
Personal Weather Stations






























Interactive Weather Map
Tropical Storm Tracking
New forecast layout! Learn more

10-Day Weather Forecast

Advertisements
Track Severe Weather on mobile